Tamms, IL (62993)

7:05 PM CDT on July 29, 2016 (GMT -0500)
Cairo Regional | | Change Station

Elev 322 ft 37.06 °N, 89.22 °W | Updated 10 minutes ago

Thunderstorm
Thunderstorm
75 °F
Feels Like 75 °F
N
17
Wind Variable Wind from West
Gusts 30 mph

Today
High -- | Low -- °F
--% Chance of Precip.
Yesterday
High -- | Low -- °F
Precip. -- in
Pressure 29.94 in
Visibility 10.0 miles
Clouds Scattered Clouds 2600 ft
Scattered Clouds 3100 ft
Scattered Clouds 4100 ft
Dew Point 71 °F
Humidity 87%
Rainfall 0.00 in
Snow Depth Not available.
5:59 AM 8:06 PM
Waning Crescent, 18% visible
METAR KCIR 292355Z AUTO 26015G26KT 10SM TS SCT026 SCT031 SCT041 24/22 A2994 RMK AO2 LTG DSNT SE THRU W T02380216 10302 20236
Pressure 29.94 in
Visibility 10.0 miles
Clouds Scattered Clouds 2600 ft
Scattered Clouds 3100 ft
Scattered Clouds 4100 ft
Dew Point 71 °F
Humidity 87%
Rainfall 0.00 in
Snow Depth Not available.
5:59 AM 8:06 PM
Waning Crescent, 18% visible
METAR KCIR 292355Z AUTO 26015G26KT 10SM TS SCT026 SCT031 SCT041 24/22 A2994 RMK AO2 LTG DSNT SE THRU W T02380216 10302 20236

10-Day Weather Forecast

Almanac

Astronomy

Jul. 29, 2016 Rise Set
Actual Time
Civil Twilight
Nautical Twilight
Astronomical Twilight
Moon
Length of Visible Light
Length of Day
Tomorrow will be .
, % of the Moon is Illuminated

Today's Extremes

State Highs State Lows

Community

WunderPhotos

Upload Photos

1,928,449 photos uploaded!

WunderBlog® & News

Nearby

Air Quality

  Air Quality AQ Index Pollutant
Not available.

Snow Depth

Station Depth Elevation

Earthquake Activity

City Distance Mag. Time & Date
Minimum magnitude displayed is 2.5.

Coastal Water Temperatures

Place Temperature

Stations

Nearby Weather Stations

Station Location Temp. Windchill Dew Point Humidity Wind Precip. Elev Updated Type
                   

Watches & Warnings

There are currently no watches in effect.